Hovedside
METAR-TAF:

METAR-TAF

Lufthavner :

Bagdad, Irak

breddegrad: 33-15-45N, lengdegrad: 44-14-04E, høyde over havet: 35 m

Gjeldene værobservasjon

Denne rapporten ble laget for 53 minutter siden, klokken 19:00 UTC
Vind 8 kt fra Vest
Temperatur 35°C
Luftfuktighet 19%
Trykk 1001 hPa
Sikt 10 km eller mer
ingen skyer under 1500 m og ingen bygeskyer

METAR: ORBI 161900Z 27008KT CAVOK 35/08 Q1001 NOSIG

Tid: 22:53 (19:53 UTC)

Varsel

Denne rapporten ble laget for 2 timer og 53 minutter siden, klokken 17:00 UTC
Varsel gyldig fra 16. klokken 18 UTC til 17. klokken 18 UTC
Vind 10 kt fra Vest-nordvest
Sikt: 8000 m

TAF: ORBI 161700Z 1618/1718 30010KT 8000 NSC

Værobservasjoner og værvarsel for over 4000 flyplasser (METAR- og TAF-rapporter).

Tilgjengelige stasjoner er representert av de røde og gule prikkene på kartet.

Hold musepekeren over prikken for å se navnet på stasjonen.

Klikk så for å se værobservasjoner og -varsler.

For å forandre kartet kan du klikke på den grønne knappen med svart kryss for å zoome inn, på den grønne knappen med strek for å zoome ut, eller på de grønne pilene for å se tilstøtende kart.


METAR-TAF: